Pagrindinis puslapis
METAR-TAF:

METAR-TAF

Oro uostai :

Büchel, Vokietija

platuma: 50-10N, ilguma: 007-04E, Aukštis: 478 m

Dabartinis oras

Ataskaita buvo paskelbta 30 minutes, ne 09:20 UTC
Vėjas 9 kt iš Rytų
Temperatūra 12°C
Drėgmė 50%
Slėgis 1029 hPa
Matomumas 10 km arba daugiau
Su prošvaistėmis ne aukštis 30000 ft

METAR: ETSB 200920Z 10009KT 9999 BKN300 12/02 Q1029 BLU+BLU+

Laikas: 11:50 (09:50 UTC)

Prognozė

Ataskaita buvo paskelbta 2 valandos ir 19 minutes, ne 07:31 UTC
Prognozė galioja nuo 20 metu 08 UTC su 20 metu 17 UTC
Vėjas 8 kt iš Rytų
Matomumas 10 km arba daugiau
Mažai debesys ne aukštis 30000 ft

TAF: ETSB 200731Z 2008/2017 08008KT 9999 NSW FEW300 BY ETGL

Orai ataskaitas ir orų prognozės (METAR, TAF).

turimą stotys yra geltonos ir raudonos taškus žemėlapyje.

Perkelti pele per norėdami pamatyti stoties vardą.

Tada spustelėkite, norėdami matyti oro stebėjimo ir prognozės.

Norėdami pakeisti žemėlapį: spustelėkite ant žalios mygtukų su juodo kryžiaus žemyn,; žalią mygtuką su brūkšneliu, jei norite nutolinti; arba žalių rodyklių gretimoms žemėlapius.


METAR-TAF: